sensor_id;sensor_type;location;lat;lon;timestamp;P1;durP1;ratioP1;P2;durP2;ratioP2
9884;SDS011;4981;50.966;4.842;2023-01-29T00:00:03;37.77;;;22.50;;
9884;SDS011;4981;50.966;4.842;2023-01-29T00:02:34;36.40;;;22.50;;
9884;SDS011;4981;50.966;4.842;2023-01-29T00:05:01;34.23;;;21.80;;
9884;SDS011;4981;50.966;4.842;2023-01-29T00:07:31;34.60;;;21.83;;
9884;SDS011;4981;50.966;4.842;2023-01-29T00:09:58;33.33;;;21.43;;
9884;SDS011;4981;50.966;4.842;2023-01-29T00:12:25;34.90;;;21.83;;
9884;SDS011;4981;50.966;4.842;2023-01-29T00:14:53;33.60;;;21.43;;
9884;SDS011;4981;50.966;4.842;2023-01-29T00:17:20;32.63;;;20.93;;
9884;SDS011;4981;50.966;4.842;2023-01-29T00:19:48;34.10;;;21.03;;
9884;SDS011;4981;50.966;4.842;2023-01-29T00:22:15;33.57;;;20.87;;
9884;SDS011;4981;50.966;4.842;2023-01-29T00:24:44;31.90;;;20.77;;
9884;SDS011;4981;50.966;4.842;2023-01-29T00:27:11;34.30;;;22.20;;
9884;SDS011;4981;50.966;4.842;2023-01-29T00:29:38;33.53;;;20.30;;
9884;SDS011;4981;50.966;4.842;2023-01-29T00:32:06;33.80;;;20.70;;
9884;SDS011;4981;50.966;4.842;2023-01-29T00:34:33;32.97;;;20.63;;
9884;SDS011;4981;50.966;4.842;2023-01-29T00:37:00;36.70;;;21.20;;
9884;SDS011;4981;50.966;4.842;2023-01-29T00:39:33;30.30;;;19.57;;
9884;SDS011;4981;50.966;4.842;2023-01-29T00:42:05;31.77;;;19.67;;
9884;SDS011;4981;50.966;4.842;2023-01-29T00:44:49;29.00;;;19.63;;
9884;SDS011;4981;50.966;4.842;2023-01-29T00:47:25;31.20;;;19.77;;
9884;SDS011;4981;50.966;4.842;2023-01-29T00:49:59;34.53;;;21.57;;
9884;SDS011;4981;50.966;4.842;2023-01-29T00:52:26;31.60;;;19.83;;
9884;SDS011;4981;50.966;4.842;2023-01-29T00:54:54;33.83;;;20.97;;
9884;SDS011;4981;50.966;4.842;2023-01-29T00:57:24;31.93;;;20.50;;
9884;SDS011;4981;50.966;4.842;2023-01-29T00:59:52;34.80;;;21.27;;
9884;SDS011;4981;50.966;4.842;2023-01-29T01:02:20;34.13;;;21.07;;
9884;SDS011;4981;50.966;4.842;2023-01-29T01:05:05;34.23;;;20.37;;
9884;SDS011;4981;50.966;4.842;2023-01-29T01:07:37;31.73;;;19.20;;
9884;SDS011;4981;50.966;4.842;2023-01-29T01:10:05;32.20;;;19.77;;
9884;SDS011;4981;50.966;4.842;2023-01-29T01:12:47;30.13;;;19.40;;
9884;SDS011;4981;50.966;4.842;2023-01-29T01:15:19;35.67;;;20.87;;
9884;SDS011;4981;50.966;4.842;2023-01-29T01:17:50;33.83;;;20.03;;
9884;SDS011;4981;50.966;4.842;2023-01-29T01:20:18;31.63;;;19.37;;
9884;SDS011;4981;50.966;4.842;2023-01-29T01:22:46;31.17;;;20.03;;
9884;SDS011;4981;50.966;4.842;2023-01-29T01:25:14;32.57;;;19.60;;
9884;SDS011;4981;50.966;4.842;2023-01-29T01:27:42;34.83;;;20.23;;
9884;SDS011;4981;50.966;4.842;2023-01-29T01:30:12;34.43;;;19.90;;
9884;SDS011;4981;50.966;4.842;2023-01-29T01:32:41;32.07;;;19.63;;
9884;SDS011;4981;50.966;4.842;2023-01-29T01:35:09;33.17;;;19.53;;
9884;SDS011;4981;50.966;4.842;2023-01-29T01:37:37;28.97;;;19.03;;
9884;SDS011;4981;50.966;4.842;2023-01-29T01:40:05;30.80;;;19.23;;
9884;SDS011;4981;50.966;4.842;2023-01-29T01:42:37;33.80;;;19.80;;
9884;SDS011;4981;50.966;4.842;2023-01-29T01:45:05;35.20;;;21.10;;
9884;SDS011;4981;50.966;4.842;2023-01-29T01:47:37;34.00;;;20.20;;
9884;SDS011;4981;50.966;4.842;2023-01-29T01:50:08;33.00;;;19.33;;
9884;SDS011;4981;50.966;4.842;2023-01-29T01:52:40;33.50;;;20.60;;
9884;SDS011;4981;50.966;4.842;2023-01-29T01:55:11;34.47;;;20.83;;
9884;SDS011;4981;50.966;4.842;2023-01-29T01:57:39;31.87;;;20.23;;
9884;SDS011;4981;50.966;4.842;2023-01-29T02:00:11;31.33;;;19.47;;
9884;SDS011;4981;50.966;4.842;2023-01-29T02:02:43;31.47;;;19.70;;
9884;SDS011;4981;50.966;4.842;2023-01-29T02:05:29;34.07;;;20.23;;
9884;SDS011;4981;50.966;4.842;2023-01-29T02:08:15;30.00;;;19.10;;
9884;SDS011;4981;50.966;4.842;2023-01-29T02:11:14;29.53;;;18.53;;
9884;SDS011;4981;50.966;4.842;2023-01-29T02:13:42;30.03;;;18.87;;
9884;SDS011;4981;50.966;4.842;2023-01-29T02:16:10;34.17;;;19.50;;
9884;SDS011;4981;50.966;4.842;2023-01-29T02:18:39;30.60;;;19.33;;
9884;SDS011;4981;50.966;4.842;2023-01-29T02:21:11;33.80;;;20.27;;
9884;SDS011;4981;50.966;4.842;2023-01-29T02:26:50;31.70;;;19.80;;
9884;SDS011;4981;50.966;4.842;2023-01-29T02:29:30;34.87;;;20.90;;
9884;SDS011;4981;50.966;4.842;2023-01-29T02:32:08;30.63;;;19.63;;
9884;SDS011;4981;50.966;4.842;2023-01-29T02:34:45;31.47;;;19.57;;
9884;SDS011;4981;50.966;4.842;2023-01-29T02:37:37;32.43;;;19.57;;
9884;SDS011;4981;50.966;4.842;2023-01-29T02:40:12;33.47;;;20.03;;
9884;SDS011;4981;50.966;4.842;2023-01-29T02:42:46;35.93;;;22.67;;
9884;SDS011;4981;50.966;4.842;2023-01-29T02:45:21;37.60;;;21.87;;
9884;SDS011;4981;50.966;4.842;2023-01-29T02:47:53;35.77;;;21.37;;
9884;SDS011;4981;50.966;4.842;2023-01-29T02:50:25;39.37;;;23.80;;
9884;SDS011;4981;50.966;4.842;2023-01-29T02:52:59;42.03;;;25.90;;
9884;SDS011;4981;50.966;4.842;2023-01-29T02:55:29;38.20;;;23.33;;
9884;SDS011;4981;50.966;4.842;2023-01-29T02:58:03;34.20;;;21.60;;
9884;SDS011;4981;50.966;4.842;2023-01-29T03:00:37;36.90;;;22.00;;
9884;SDS011;4981;50.966;4.842;2023-01-29T03:03:09;35.47;;;21.03;;
9884;SDS011;4981;50.966;4.842;2023-01-29T03:05:42;34.17;;;20.63;;
9884;SDS011;4981;50.966;4.842;2023-01-29T03:08:19;32.97;;;20.13;;
9884;SDS011;4981;50.966;4.842;2023-01-29T03:11:02;32.23;;;19.80;;
9884;SDS011;4981;50.966;4.842;2023-01-29T03:13:33;34.20;;;19.70;;
9884;SDS011;4981;50.966;4.842;2023-01-29T03:16:06;35.23;;;20.13;;
9884;SDS011;4981;50.966;4.842;2023-01-29T03:18:40;32.53;;;20.23;;
9884;SDS011;4981;50.966;4.842;2023-01-29T03:21:14;31.70;;;19.27;;
9884;SDS011;4981;50.966;4.842;2023-01-29T03:24:09;31.27;;;19.47;;
9884;SDS011;4981;50.966;4.842;2023-01-29T03:26:57;30.47;;;19.07;;
9884;SDS011;4981;50.966;4.842;2023-01-29T03:29:45;32.33;;;19.97;;
9884;SDS011;4981;50.966;4.842;2023-01-29T03:32:34;32.83;;;19.03;;
9884;SDS011;4981;50.966;4.842;2023-01-29T03:35:03;33.13;;;20.27;;
9884;SDS011;4981;50.966;4.842;2023-01-29T03:37:32;32.17;;;19.27;;
9884;SDS011;4981;50.966;4.842;2023-01-29T03:40:05;33.87;;;19.93;;
9884;SDS011;4981;50.966;4.842;2023-01-29T03:42:37;29.30;;;18.10;;
9884;SDS011;4981;50.966;4.842;2023-01-29T03:45:09;33.10;;;19.77;;
9884;SDS011;4981;50.966;4.842;2023-01-29T03:47:43;32.00;;;19.90;;
9884;SDS011;4981;50.966;4.842;2023-01-29T03:50:14;31.40;;;19.17;;
9884;SDS011;4981;50.966;4.842;2023-01-29T03:53:00;33.87;;;19.57;;
9884;SDS011;4981;50.966;4.842;2023-01-29T03:55:34;33.07;;;20.43;;
9884;SDS011;4981;50.966;4.842;2023-01-29T03:58:10;30.00;;;19.33;;
9884;SDS011;4981;50.966;4.842;2023-01-29T04:00:48;33.47;;;19.80;;
9884;SDS011;4981;50.966;4.842;2023-01-29T04:03:22;33.30;;;20.03;;
9884;SDS011;4981;50.966;4.842;2023-01-29T04:05:55;32.87;;;20.83;;
9884;SDS011;4981;50.966;4.842;2023-01-29T04:08:34;31.97;;;20.73;;
9884;SDS011;4981;50.966;4.842;2023-01-29T04:11:07;31.43;;;18.77;;
9884;SDS011;4981;50.966;4.842;2023-01-29T04:13:39;30.50;;;19.80;;
9884;SDS011;4981;50.966;4.842;2023-01-29T04:16:09;31.80;;;19.70;;
9884;SDS011;4981;50.966;4.842;2023-01-29T04:18:41;33.27;;;20.60;;
9884;SDS011;4981;50.966;4.842;2023-01-29T04:21:10;34.30;;;19.20;;
9884;SDS011;4981;50.966;4.842;2023-01-29T04:23:38;34.67;;;22.00;;
9884;SDS011;4981;50.966;4.842;2023-01-29T04:26:10;35.43;;;21.40;;
9884;SDS011;4981;50.966;4.842;2023-01-29T04:28:58;32.07;;;20.50;;
9884;SDS011;4981;50.966;4.842;2023-01-29T04:31:36;33.60;;;20.73;;
9884;SDS011;4981;50.966;4.842;2023-01-29T04:34:15;36.27;;;21.37;;
9884;SDS011;4981;50.966;4.842;2023-01-29T04:36:47;37.00;;;22.53;;
9884;SDS011;4981;50.966;4.842;2023-01-29T04:39:30;36.83;;;21.70;;
9884;SDS011;4981;50.966;4.842;2023-01-29T04:42:08;34.13;;;21.37;;
9884;SDS011;4981;50.966;4.842;2023-01-29T04:44:41;38.47;;;22.60;;
9884;SDS011;4981;50.966;4.842;2023-01-29T04:47:17;33.50;;;20.87;;
9884;SDS011;4981;50.966;4.842;2023-01-29T04:49:55;36.60;;;21.60;;
9884;SDS011;4981;50.966;4.842;2023-01-29T04:52:31;36.90;;;22.30;;
9884;SDS011;4981;50.966;4.842;2023-01-29T04:55:06;35.53;;;20.97;;
9884;SDS011;4981;50.966;4.842;2023-01-29T04:57:40;35.37;;;21.87;;
9884;SDS011;4981;50.966;4.842;2023-01-29T05:00:15;35.17;;;20.57;;
9884;SDS011;4981;50.966;4.842;2023-01-29T05:02:45;36.33;;;21.47;;
9884;SDS011;4981;50.966;4.842;2023-01-29T05:05:15;32.73;;;20.33;;
9884;SDS011;4981;50.966;4.842;2023-01-29T05:07:45;33.23;;;20.40;;
9884;SDS011;4981;50.966;4.842;2023-01-29T05:10:14;34.20;;;21.07;;
9884;SDS011;4981;50.966;4.842;2023-01-29T05:12:45;32.67;;;20.20;;
9884;SDS011;4981;50.966;4.842;2023-01-29T05:15:18;36.80;;;21.33;;
9884;SDS011;4981;50.966;4.842;2023-01-29T05:17:49;32.70;;;20.57;;
9884;SDS011;4981;50.966;4.842;2023-01-29T05:20:19;33.90;;;21.00;;
9884;SDS011;4981;50.966;4.842;2023-01-29T05:22:46;31.57;;;20.30;;
9884;SDS011;4981;50.966;4.842;2023-01-29T05:25:18;36.53;;;22.43;;
9884;SDS011;4981;50.966;4.842;2023-01-29T05:27:48;35.37;;;21.40;;
9884;SDS011;4981;50.966;4.842;2023-01-29T05:30:33;38.73;;;21.70;;
9884;SDS011;4981;50.966;4.842;2023-01-29T05:33:02;36.60;;;21.70;;
9884;SDS011;4981;50.966;4.842;2023-01-29T05:35:32;39.83;;;22.93;;
9884;SDS011;4981;50.966;4.842;2023-01-29T05:37:59;40.00;;;23.10;;
9884;SDS011;4981;50.966;4.842;2023-01-29T05:40:26;38.43;;;23.13;;
9884;SDS011;4981;50.966;4.842;2023-01-29T05:42:53;33.47;;;21.57;;
9884;SDS011;4981;50.966;4.842;2023-01-29T05:45:21;39.53;;;22.13;;
9884;SDS011;4981;50.966;4.842;2023-01-29T05:47:48;35.77;;;22.50;;
9884;SDS011;4981;50.966;4.842;2023-01-29T05:50:15;33.33;;;20.07;;
9884;SDS011;4981;50.966;4.842;2023-01-29T05:52:44;37.40;;;21.73;;
9884;SDS011;4981;50.966;4.842;2023-01-29T05:55:12;40.07;;;23.00;;
9884;SDS011;4981;50.966;4.842;2023-01-29T05:57:39;36.37;;;22.57;;
9884;SDS011;4981;50.966;4.842;2023-01-29T06:00:07;36.33;;;22.43;;
9884;SDS011;4981;50.966;4.842;2023-01-29T06:02:37;34.23;;;21.27;;
9884;SDS011;4981;50.966;4.842;2023-01-29T06:05:04;34.87;;;22.23;;
9884;SDS011;4981;50.966;4.842;2023-01-29T06:07:32;37.17;;;21.93;;
9884;SDS011;4981;50.966;4.842;2023-01-29T06:10:01;35.37;;;21.50;;
9884;SDS011;4981;50.966;4.842;2023-01-29T06:12:28;36.53;;;22.40;;
9884;SDS011;4981;50.966;4.842;2023-01-29T06:14:56;36.80;;;19.70;;
9884;SDS011;4981;50.966;4.842;2023-01-29T06:17:23;37.87;;;21.47;;
9884;SDS011;4981;50.966;4.842;2023-01-29T06:19:50;38.10;;;23.03;;
9884;SDS011;4981;50.966;4.842;2023-01-29T06:22:18;36.73;;;21.47;;
9884;SDS011;4981;50.966;4.842;2023-01-29T06:24:45;36.63;;;21.87;;
9884;SDS011;4981;50.966;4.842;2023-01-29T06:27:14;36.70;;;21.03;;
9884;SDS011;4981;50.966;4.842;2023-01-29T06:29:41;38.00;;;21.50;;
9884;SDS011;4981;50.966;4.842;2023-01-29T06:32:08;36.20;;;21.37;;
9884;SDS011;4981;50.966;4.842;2023-01-29T06:34:36;38.13;;;22.47;;
9884;SDS011;4981;50.966;4.842;2023-01-29T06:37:03;39.80;;;21.90;;
9884;SDS011;4981;50.966;4.842;2023-01-29T06:39:32;37.00;;;22.70;;
9884;SDS011;4981;50.966;4.842;2023-01-29T06:41:59;34.97;;;21.40;;
9884;SDS011;4981;50.966;4.842;2023-01-29T06:44:28;40.47;;;22.23;;
9884;SDS011;4981;50.966;4.842;2023-01-29T06:46:55;35.90;;;22.17;;
9884;SDS011;4981;50.966;4.842;2023-01-29T06:49:23;34.33;;;21.63;;
9884;SDS011;4981;50.966;4.842;2023-01-29T06:51:50;34.80;;;21.20;;
9884;SDS011;4981;50.966;4.842;2023-01-29T06:54:17;37.00;;;22.60;;
9884;SDS011;4981;50.966;4.842;2023-01-29T06:56:45;40.47;;;22.30;;
9884;SDS011;4981;50.966;4.842;2023-01-29T06:59:12;35.00;;;21.20;;
9884;SDS011;4981;50.966;4.842;2023-01-29T07:01:41;38.70;;;21.93;;
9884;SDS011;4981;50.966;4.842;2023-01-29T07:04:08;35.43;;;20.60;;
9884;SDS011;4981;50.966;4.842;2023-01-29T07:06:36;34.87;;;21.50;;
9884;SDS011;4981;50.966;4.842;2023-01-29T07:09:03;38.30;;;21.47;;
9884;SDS011;4981;50.966;4.842;2023-01-29T07:11:31;35.77;;;20.97;;
9884;SDS011;4981;50.966;4.842;2023-01-29T07:14:02;35.60;;;21.87;;
9884;SDS011;4981;50.966;4.842;2023-01-29T07:16:29;36.20;;;21.50;;
9884;SDS011;4981;50.966;4.842;2023-01-29T07:18:58;37.70;;;22.20;;
9884;SDS011;4981;50.966;4.842;2023-01-29T07:21:25;36.10;;;22.30;;
9884;SDS011;4981;50.966;4.842;2023-01-29T07:23:53;36.53;;;22.30;;
9884;SDS011;4981;50.966;4.842;2023-01-29T07:26:20;36.47;;;21.53;;
9884;SDS011;4981;50.966;4.842;2023-01-29T07:28:48;38.33;;;23.93;;
9884;SDS011;4981;50.966;4.842;2023-01-29T07:31:15;38.57;;;23.50;;
9884;SDS011;4981;50.966;4.842;2023-01-29T07:33:42;38.80;;;24.20;;
9884;SDS011;4981;50.966;4.842;2023-01-29T07:36:11;39.27;;;23.73;;
9884;SDS011;4981;50.966;4.842;2023-01-29T07:38:39;34.37;;;21.70;;
9884;SDS011;4981;50.966;4.842;2023-01-29T07:41:07;39.77;;;23.13;;
9884;SDS011;4981;50.966;4.842;2023-01-29T07:43:35;36.53;;;21.87;;
9884;SDS011;4981;50.966;4.842;2023-01-29T07:46:02;39.70;;;23.60;;
9884;SDS011;4981;50.966;4.842;2023-01-29T07:48:30;35.70;;;21.80;;
9884;SDS011;4981;50.966;4.842;2023-01-29T07:50:58;37.70;;;23.70;;
9884;SDS011;4981;50.966;4.842;2023-01-29T07:53:27;41.77;;;24.20;;
9884;SDS011;4981;50.966;4.842;2023-01-29T07:55:55;36.70;;;21.90;;
9884;SDS011;4981;50.966;4.842;2023-01-29T07:58:22;36.03;;;22.40;;
9884;SDS011;4981;50.966;4.842;2023-01-29T08:00:50;37.13;;;22.93;;
9884;SDS011;4981;50.966;4.842;2023-01-29T08:03:18;39.00;;;25.30;;
9884;SDS011;4981;50.966;4.842;2023-01-29T08:05:45;43.07;;;27.03;;
9884;SDS011;4981;50.966;4.842;2023-01-29T08:08:13;37.87;;;23.20;;
9884;SDS011;4981;50.966;4.842;2023-01-29T08:10:42;40.10;;;25.30;;
9884;SDS011;4981;50.966;4.842;2023-01-29T08:13:10;38.97;;;23.50;;
9884;SDS011;4981;50.966;4.842;2023-01-29T08:15:37;42.20;;;25.13;;
9884;SDS011;4981;50.966;4.842;2023-01-29T08:18:07;57.90;;;33.13;;
9884;SDS011;4981;50.966;4.842;2023-01-29T08:20:35;103.47;;;54.13;;
9884;SDS011;4981;50.966;4.842;2023-01-29T08:23:03;51.70;;;30.53;;
9884;SDS011;4981;50.966;4.842;2023-01-29T08:25:31;39.77;;;24.90;;
9884;SDS011;4981;50.966;4.842;2023-01-29T08:28:00;40.90;;;24.03;;
9884;SDS011;4981;50.966;4.842;2023-01-29T08:30:28;41.37;;;25.10;;
9884;SDS011;4981;50.966;4.842;2023-01-29T08:32:57;38.40;;;23.07;;
9884;SDS011;4981;50.966;4.842;2023-01-29T08:35:24;38.23;;;23.63;;
9884;SDS011;4981;50.966;4.842;2023-01-29T08:37:53;40.03;;;23.43;;
9884;SDS011;4981;50.966;4.842;2023-01-29T08:40:23;38.47;;;23.87;;
9884;SDS011;4981;50.966;4.842;2023-01-29T08:42:51;40.90;;;24.13;;
9884;SDS011;4981;50.966;4.842;2023-01-29T08:45:20;37.77;;;24.50;;
9884;SDS011;4981;50.966;4.842;2023-01-29T08:47:47;43.20;;;25.43;;
9884;SDS011;4981;50.966;4.842;2023-01-29T08:50:15;38.73;;;23.57;;
9884;SDS011;4981;50.966;4.842;2023-01-29T08:52:43;46.37;;;25.10;;
9884;SDS011;4981;50.966;4.842;2023-01-29T08:55:10;40.77;;;23.23;;
9884;SDS011;4981;50.966;4.842;2023-01-29T08:57:38;41.13;;;24.23;;
9884;SDS011;4981;50.966;4.842;2023-01-29T09:00:06;36.30;;;23.10;;
9884;SDS011;4981;50.966;4.842;2023-01-29T09:02:36;38.17;;;23.57;;
9884;SDS011;4981;50.966;4.842;2023-01-29T09:05:04;35.63;;;22.37;;
9884;SDS011;4981;50.966;4.842;2023-01-29T09:07:32;37.97;;;23.27;;
9884;SDS011;4981;50.966;4.842;2023-01-29T09:09:59;35.90;;;22.77;;
9884;SDS011;4981;50.966;4.842;2023-01-29T09:12:27;38.70;;;23.80;;
9884;SDS011;4981;50.966;4.842;2023-01-29T09:14:54;36.77;;;22.97;;
9884;SDS011;4981;50.966;4.842;2023-01-29T09:17:22;36.63;;;23.13;;
9884;SDS011;4981;50.966;4.842;2023-01-29T09:19:51;37.27;;;22.67;;
9884;SDS011;4981;50.966;4.842;2023-01-29T09:22:19;38.40;;;22.67;;
9884;SDS011;4981;50.966;4.842;2023-01-29T09:24:46;39.70;;;23.03;;
9884;SDS011;4981;50.966;4.842;2023-01-29T09:27:13;39.47;;;22.90;;
9884;SDS011;4981;50.966;4.842;2023-01-29T09:29:41;38.33;;;23.47;;
9884;SDS011;4981;50.966;4.842;2023-01-29T09:32:08;35.23;;;21.57;;
9884;SDS011;4981;50.966;4.842;2023-01-29T09:34:35;40.47;;;23.63;;
9884;SDS011;4981;50.966;4.842;2023-01-29T09:37:05;37.47;;;22.93;;
9884;SDS011;4981;50.966;4.842;2023-01-29T09:39:32;38.73;;;23.37;;
9884;SDS011;4981;50.966;4.842;2023-01-29T09:42:02;40.83;;;23.73;;
9884;SDS011;4981;50.966;4.842;2023-01-29T09:44:38;38.73;;;24.23;;
9884;SDS011;4981;50.966;4.842;2023-01-29T09:47:18;40.57;;;23.83;;
9884;SDS011;4981;50.966;4.842;2023-01-29T09:49:50;27.47;;;15.73;;
9884;SDS011;4981;50.966;4.842;2023-01-29T09:52:24;39.07;;;22.90;;
9884;SDS011;4981;50.966;4.842;2023-01-29T09:54:56;41.17;;;24.13;;
9884;SDS011;4981;50.966;4.842;2023-01-29T09:57:30;39.20;;;24.17;;
9884;SDS011;4981;50.966;4.842;2023-01-29T10:00:03;42.27;;;24.67;;
9884;SDS011;4981;50.966;4.842;2023-01-29T10:02:38;34.97;;;22.33;;
9884;SDS011;4981;50.966;4.842;2023-01-29T10:05:39;37.23;;;23.03;;
9884;SDS011;4981;50.966;4.842;2023-01-29T10:11:28;37.67;;;23.33;;
9884;SDS011;4981;50.966;4.842;2023-01-29T10:14:08;38.63;;;23.50;;
9884;SDS011;4981;50.966;4.842;2023-01-29T10:16:39;39.87;;;23.03;;
9884;SDS011;4981;50.966;4.842;2023-01-29T10:19:29;38.60;;;24.30;;
9884;SDS011;4981;50.966;4.842;2023-01-29T10:22:16;40.80;;;23.50;;
9884;SDS011;4981;50.966;4.842;2023-01-29T10:25:01;44.00;;;25.90;;
9884;SDS011;4981;50.966;4.842;2023-01-29T10:27:32;42.40;;;25.30;;
9884;SDS011;4981;50.966;4.842;2023-01-29T10:30:03;40.57;;;23.70;;
9884;SDS011;4981;50.966;4.842;2023-01-29T10:32:34;37.10;;;23.07;;
9884;SDS011;4981;50.966;4.842;2023-01-29T10:35:04;45.17;;;23.60;;
9884;SDS011;4981;50.966;4.842;2023-01-29T10:37:47;41.23;;;22.73;;
9884;SDS011;4981;50.966;4.842;2023-01-29T10:40:19;37.23;;;22.10;;
9884;SDS011;4981;50.966;4.842;2023-01-29T10:42:51;35.73;;;22.47;;
9884;SDS011;4981;50.966;4.842;2023-01-29T10:45:28;38.93;;;23.23;;
9884;SDS011;4981;50.966;4.842;2023-01-29T10:51:08;40.17;;;24.53;;
9884;SDS011;4981;50.966;4.842;2023-01-29T10:53:47;37.07;;;22.70;;
9884;SDS011;4981;50.966;4.842;2023-01-29T10:56:28;36.93;;;22.50;;
9884;SDS011;4981;50.966;4.842;2023-01-29T10:59:02;36.33;;;22.90;;
9884;SDS011;4981;50.966;4.842;2023-01-29T11:01:31;36.13;;;22.27;;
9884;SDS011;4981;50.966;4.842;2023-01-29T11:03:59;36.30;;;22.57;;
9884;SDS011;4981;50.966;4.842;2023-01-29T11:06:29;51.33;;;28.13;;
9884;SDS011;4981;50.966;4.842;2023-01-29T11:08:59;59.00;;;32.30;;
9884;SDS011;4981;50.966;4.842;2023-01-29T11:11:32;38.40;;;23.83;;
9884;SDS011;4981;50.966;4.842;2023-01-29T11:14:05;40.00;;;23.13;;
9884;SDS011;4981;50.966;4.842;2023-01-29T11:16:40;39.63;;;23.40;;
9884;SDS011;4981;50.966;4.842;2023-01-29T11:19:09;44.00;;;26.83;;
9884;SDS011;4981;50.966;4.842;2023-01-29T11:21:50;43.07;;;23.97;;
9884;SDS011;4981;50.966;4.842;2023-01-29T11:24:22;52.37;;;27.90;;
9884;SDS011;4981;50.966;4.842;2023-01-29T11:26:49;47.97;;;26.20;;
9884;SDS011;4981;50.966;4.842;2023-01-29T11:29:32;34.10;;;22.23;;
9884;SDS011;4981;50.966;4.842;2023-01-29T11:32:04;33.43;;;19.80;;
9884;SDS011;4981;50.966;4.842;2023-01-29T11:34:33;37.97;;;21.03;;
9884;SDS011;4981;50.966;4.842;2023-01-29T11:37:21;34.03;;;21.80;;
9884;SDS011;4981;50.966;4.842;2023-01-29T11:39:48;38.30;;;21.83;;
9884;SDS011;4981;50.966;4.842;2023-01-29T11:42:18;33.40;;;19.97;;
9884;SDS011;4981;50.966;4.842;2023-01-29T11:44:48;32.80;;;20.70;;
9884;SDS011;4981;50.966;4.842;2023-01-29T11:47:17;34.03;;;21.57;;
9884;SDS011;4981;50.966;4.842;2023-01-29T11:49:48;31.73;;;19.73;;
9884;SDS011;4981;50.966;4.842;2023-01-29T11:52:18;32.23;;;18.80;;
9884;SDS011;4981;50.966;4.842;2023-01-29T11:54:48;34.57;;;19.97;;
9884;SDS011;4981;50.966;4.842;2023-01-29T11:57:21;32.37;;;18.73;;
9884;SDS011;4981;50.966;4.842;2023-01-29T11:59:55;33.73;;;19.80;;
9884;SDS011;4981;50.966;4.842;2023-01-29T12:02:27;29.13;;;18.20;;
9884;SDS011;4981;50.966;4.842;2023-01-29T12:04:59;28.23;;;18.27;;
9884;SDS011;4981;50.966;4.842;2023-01-29T12:07:30;31.07;;;18.17;;
9884;SDS011;4981;50.966;4.842;2023-01-29T12:09:58;30.10;;;18.07;;
9884;SDS011;4981;50.966;4.842;2023-01-29T12:12:34;33.97;;;18.00;;
9884;SDS011;4981;50.966;4.842;2023-01-29T12:17:56;26.60;;;17.00;;
9884;SDS011;4981;50.966;4.842;2023-01-29T12:20:29;27.43;;;15.67;;
9884;SDS011;4981;50.966;4.842;2023-01-29T12:23:02;37.97;;;19.13;;
9884;SDS011;4981;50.966;4.842;2023-01-29T12:25:40;33.67;;;18.47;;
9884;SDS011;4981;50.966;4.842;2023-01-29T12:28:18;31.97;;;19.33;;
9884;SDS011;4981;50.966;4.842;2023-01-29T12:30:58;31.30;;;19.23;;
9884;SDS011;4981;50.966;4.842;2023-01-29T12:33:40;33.57;;;19.33;;
9884;SDS011;4981;50.966;4.842;2023-01-29T12:36:11;34.20;;;20.17;;
9884;SDS011;4981;50.966;4.842;2023-01-29T12:38:43;32.97;;;18.27;;
9884;SDS011;4981;50.966;4.842;2023-01-29T12:41:18;35.53;;;19.17;;
9884;SDS011;4981;50.966;4.842;2023-01-29T12:43:49;30.67;;;18.47;;
9884;SDS011;4981;50.966;4.842;2023-01-29T12:46:22;31.90;;;19.93;;
9884;SDS011;4981;50.966;4.842;2023-01-29T12:48:51;34.63;;;19.83;;
9884;SDS011;4981;50.966;4.842;2023-01-29T12:51:28;31.70;;;19.17;;
9884;SDS011;4981;50.966;4.842;2023-01-29T12:53:58;28.90;;;18.80;;
9884;SDS011;4981;50.966;4.842;2023-01-29T12:56:31;35.50;;;19.93;;
9884;SDS011;4981;50.966;4.842;2023-01-29T12:59:01;32.90;;;19.60;;
9884;SDS011;4981;50.966;4.842;2023-01-29T13:01:37;32.27;;;20.07;;
9884;SDS011;4981;50.966;4.842;2023-01-29T13:04:10;28.13;;;18.00;;
9884;SDS011;4981;50.966;4.842;2023-01-29T13:06:44;30.23;;;17.83;;
9884;SDS011;4981;50.966;4.842;2023-01-29T13:09:16;29.87;;;19.63;;
9884;SDS011;4981;50.966;4.842;2023-01-29T13:11:46;31.90;;;19.70;;
9884;SDS011;4981;50.966;4.842;2023-01-29T13:14:19;32.27;;;19.20;;
9884;SDS011;4981;50.966;4.842;2023-01-29T13:16:50;30.60;;;18.63;;
9884;SDS011;4981;50.966;4.842;2023-01-29T13:19:24;29.70;;;18.60;;
9884;SDS011;4981;50.966;4.842;2023-01-29T13:21:55;28.23;;;17.47;;
9884;SDS011;4981;50.966;4.842;2023-01-29T13:24:26;32.00;;;19.33;;
9884;SDS011;4981;50.966;4.842;2023-01-29T13:26:57;26.53;;;16.40;;
9884;SDS011;4981;50.966;4.842;2023-01-29T13:29:25;33.90;;;20.13;;
9884;SDS011;4981;50.966;4.842;2023-01-29T13:31:56;32.03;;;19.93;;
9884;SDS011;4981;50.966;4.842;2023-01-29T13:34:25;27.03;;;18.17;;
9884;SDS011;4981;50.966;4.842;2023-01-29T13:36:56;30.67;;;18.73;;
9884;SDS011;4981;50.966;4.842;2023-01-29T13:39:26;59.87;;;25.23;;
9884;SDS011;4981;50.966;4.842;2023-01-29T13:41:55;40.97;;;20.63;;
9884;SDS011;4981;50.966;4.842;2023-01-29T13:44:26;32.30;;;17.83;;
9884;SDS011;4981;50.966;4.842;2023-01-29T13:46:58;27.90;;;17.20;;
9884;SDS011;4981;50.966;4.842;2023-01-29T13:49:28;26.77;;;15.77;;
9884;SDS011;4981;50.966;4.842;2023-01-29T13:52:14;24.90;;;15.00;;
9884;SDS011;4981;50.966;4.842;2023-01-29T13:54:51;23.10;;;14.83;;
9884;SDS011;4981;50.966;4.842;2023-01-29T13:57:32;24.80;;;15.20;;
9884;SDS011;4981;50.966;4.842;2023-01-29T14:06:42;23.40;;;14.23;;
9884;SDS011;4981;50.966;4.842;2023-01-29T14:12:30;20.07;;;12.90;;
9884;SDS011;4981;50.966;4.842;2023-01-29T14:15:00;19.60;;;11.90;;
9884;SDS011;4981;50.966;4.842;2023-01-29T14:17:51;22.63;;;14.43;;
9884;SDS011;4981;50.966;4.842;2023-01-29T14:20:50;19.27;;;13.33;;
9884;SDS011;4981;50.966;4.842;2023-01-29T14:23:30;20.17;;;13.20;;
9884;SDS011;4981;50.966;4.842;2023-01-29T14:26:18;16.83;;;11.73;;
9884;SDS011;4981;50.966;4.842;2023-01-29T14:28:56;24.03;;;13.70;;
9884;SDS011;4981;50.966;4.842;2023-01-29T14:31:38;22.13;;;12.43;;
9884;SDS011;4981;50.966;4.842;2023-01-29T14:34:11;21.53;;;13.40;;
9884;SDS011;4981;50.966;4.842;2023-01-29T14:36:43;19.93;;;14.33;;
9884;SDS011;4981;50.966;4.842;2023-01-29T14:39:19;20.03;;;13.30;;
9884;SDS011;4981;50.966;4.842;2023-01-29T14:41:48;18.47;;;12.40;;
9884;SDS011;4981;50.966;4.842;2023-01-29T14:47:16;18.60;;;12.10;;
9884;SDS011;4981;50.966;4.842;2023-01-29T14:49:51;17.50;;;11.53;;
9884;SDS011;4981;50.966;4.842;2023-01-29T14:52:23;18.37;;;11.63;;
9884;SDS011;4981;50.966;4.842;2023-01-29T14:54:56;16.27;;;11.23;;
9884;SDS011;4981;50.966;4.842;2023-01-29T14:57:27;19.70;;;12.27;;
9884;SDS011;4981;50.966;4.842;2023-01-29T14:59:56;17.83;;;12.10;;
9884;SDS011;4981;50.966;4.842;2023-01-29T15:02:29;19.17;;;12.43;;
9884;SDS011;4981;50.966;4.842;2023-01-29T15:05:03;19.60;;;11.63;;
9884;SDS011;4981;50.966;4.842;2023-01-29T15:07:37;15.80;;;10.93;;
9884;SDS011;4981;50.966;4.842;2023-01-29T15:10:16;14.73;;;10.50;;
9884;SDS011;4981;50.966;4.842;2023-01-29T15:12:46;13.53;;;10.60;;
9884;SDS011;4981;50.966;4.842;2023-01-29T15:15:16;18.27;;;11.73;;
9884;SDS011;4981;50.966;4.842;2023-01-29T15:17:48;17.37;;;11.57;;
9884;SDS011;4981;50.966;4.842;2023-01-29T15:20:25;16.93;;;11.43;;
9884;SDS011;4981;50.966;4.842;2023-01-29T15:22:58;16.13;;;11.10;;
9884;SDS011;4981;50.966;4.842;2023-01-29T15:25:27;16.20;;;11.43;;
9884;SDS011;4981;50.966;4.842;2023-01-29T15:28:00;17.73;;;11.40;;
9884;SDS011;4981;50.966;4.842;2023-01-29T15:30:32;17.70;;;11.53;;
9884;SDS011;4981;50.966;4.842;2023-01-29T15:33:00;17.27;;;11.37;;
9884;SDS011;4981;50.966;4.842;2023-01-29T15:35:30;16.73;;;11.03;;
9884;SDS011;4981;50.966;4.842;2023-01-29T15:38:03;17.27;;;12.27;;
9884;SDS011;4981;50.966;4.842;2023-01-29T15:40:32;19.63;;;12.13;;